Bonus, Illinois
Current Conditions -  °F | °C
As of 9:54 PM on Tuesday 25 Nov 2014 (Local Time) from KRFD Reporting Station
Clear Clear  
Wind Chill:   Ceiling: Unl
Heat Index: 14°   Visibility: 8mi
Dew Point: 10°   Wind: 5mph
Humidity: 84%   Direction: 150°SSE
Pressure: 30.18"   Gusts: NA
Location:  42.267°N, 88.7326°W
Report Text: KRFD 260354Z 15004KT 8SM CLR M10/M12 A3018 RMK AO2 SLP233 VIS W 2 1/2 I1000 T11001122
Loading
Personal Weather Stations






























Interactive Weather Map New forecast layout! Learn more

10-Day Weather Forecast

Advertisements
Track Severe Weather on mobile